createdAt,value
2022-11-20T00:01:16.513Z,2.10
2022-11-20T00:03:43.199Z,2.47
2022-11-20T00:06:12.289Z,2.28
2022-11-20T00:08:38.875Z,1.92
2022-11-20T00:11:16.906Z,2.30
2022-11-20T00:13:44.485Z,2.20
2022-11-20T00:16:12.821Z,2.03
2022-11-20T00:18:39.499Z,2.30
2022-11-20T00:21:08.671Z,1.88
2022-11-20T00:23:35.659Z,2.20
2022-11-20T00:26:06.800Z,2.15
2022-11-20T00:28:33.328Z,2.25
2022-11-20T00:31:07.944Z,1.83
2022-11-20T00:33:34.547Z,2.20
2022-11-20T00:36:05.880Z,2.30
2022-11-20T00:38:32.919Z,2.03
2022-11-20T00:41:00.751Z,2.00
2022-11-20T00:43:27.955Z,2.00
2022-11-20T00:46:07.963Z,2.10
2022-11-20T00:48:34.515Z,1.80
2022-11-20T00:51:01.128Z,2.10
2022-11-20T00:53:28.096Z,1.85
2022-11-20T00:55:58.960Z,2.03
2022-11-20T00:58:29.215Z,2.10
2022-11-20T01:01:01.141Z,2.30
2022-11-20T01:03:27.716Z,2.13
2022-11-20T01:05:54.259Z,2.00
2022-11-20T01:08:20.801Z,2.05
2022-11-20T01:10:47.349Z,2.20
2022-11-20T01:13:32.236Z,1.95
2022-11-20T01:16:13.142Z,1.98
2022-11-20T01:18:42.716Z,1.95
2022-11-20T01:21:34.085Z,1.70
2022-11-20T01:24:01.105Z,1.92
2022-11-20T01:26:29.762Z,1.83
2022-11-20T01:28:56.922Z,1.90
2022-11-20T01:31:24.593Z,1.70
2022-11-20T01:33:53.099Z,1.98
2022-11-20T01:36:20.843Z,2.00
2022-11-20T01:38:47.581Z,2.05
2022-11-20T01:41:33.955Z,1.70
2022-11-20T01:44:01.129Z,1.77
2022-11-20T01:46:28.269Z,1.65
2022-11-20T01:49:06.742Z,1.90
2022-11-20T01:51:51.118Z,1.95
2022-11-20T01:54:25.354Z,1.80
2022-11-20T01:56:53.703Z,1.50
2022-11-20T01:59:21.046Z,2.00
2022-11-20T02:01:48.087Z,1.90
2022-11-20T02:04:14.995Z,1.90
2022-11-20T02:06:45.804Z,1.70
2022-11-20T02:09:12.770Z,1.60
2022-11-20T02:11:39.371Z,1.80
2022-11-20T02:14:05.904Z,1.88
2022-11-20T02:16:35.542Z,1.63
2022-11-20T02:19:03.758Z,1.73
2022-11-20T02:21:50.372Z,1.33
2022-11-20T02:24:18.716Z,1.73
2022-11-20T02:26:52.541Z,1.60
2022-11-20T02:29:28.008Z,1.65
2022-11-20T02:31:56.210Z,1.73
2022-11-20T02:34:22.795Z,1.35
2022-11-20T02:36:50.918Z,1.50
2022-11-20T02:39:20.460Z,1.55
2022-11-20T02:41:47.512Z,1.77
2022-11-20T02:44:14.111Z,1.70
2022-11-20T02:46:40.834Z,1.65
2022-11-20T02:49:07.439Z,1.77
2022-11-20T02:51:34.001Z,1.80
2022-11-20T02:54:00.647Z,1.70
2022-11-20T02:56:27.199Z,1.60
2022-11-20T02:58:53.819Z,1.50
2022-11-20T03:01:20.436Z,1.60
2022-11-20T03:03:49.449Z,1.67
2022-11-20T03:06:17.558Z,1.58
2022-11-20T03:08:44.211Z,1.85
2022-11-20T03:11:10.887Z,1.70
2022-11-20T03:13:37.466Z,1.65
2022-11-20T03:16:14.803Z,1.90
2022-11-20T03:18:42.291Z,2.25
2022-11-20T03:21:10.212Z,1.90
2022-11-20T03:23:37.392Z,1.70
2022-11-20T03:26:20.011Z,2.20
2022-11-20T03:28:57.438Z,1.73
2022-11-20T03:31:35.711Z,1.90
2022-11-20T03:34:02.671Z,1.60
2022-11-20T03:36:29.410Z,1.70
2022-11-20T03:38:57.038Z,1.80
2022-11-20T03:41:26.570Z,1.75
2022-11-20T03:43:57.225Z,1.75
2022-11-20T03:46:24.187Z,1.80
2022-11-20T03:48:52.149Z,1.77
2022-11-20T03:51:33.486Z,1.77
2022-11-20T03:54:02.498Z,1.70
2022-11-20T03:56:36.296Z,1.92
2022-11-20T03:59:03.270Z,1.60
2022-11-20T04:01:32.650Z,1.63
2022-11-20T04:03:59.569Z,1.70
2022-11-20T04:06:29.090Z,1.70
2022-11-20T04:08:56.780Z,1.80
2022-11-20T04:11:25.351Z,1.50
2022-11-20T04:13:54.361Z,1.48
2022-11-20T04:16:21.979Z,1.42
2022-11-20T04:18:48.568Z,1.77
2022-11-20T04:21:15.091Z,1.60
2022-11-20T04:23:41.684Z,1.40
2022-11-20T04:26:09.131Z,1.60
2022-11-20T04:28:36.138Z,1.67
2022-11-20T04:31:07.039Z,1.80
2022-11-20T04:33:34.674Z,1.80
2022-11-20T04:36:03.442Z,1.55
2022-11-20T04:38:30.098Z,1.60
2022-11-20T04:40:58.767Z,1.60
2022-11-20T04:43:25.331Z,1.92
2022-11-20T04:45:56.094Z,1.45
2022-11-20T04:48:23.279Z,1.42
2022-11-20T04:50:49.921Z,1.48
2022-11-20T04:53:16.495Z,1.60
2022-11-20T04:55:43.058Z,1.48
2022-11-20T04:58:09.613Z,1.70
2022-11-20T05:00:36.377Z,1.50
2022-11-20T05:03:02.915Z,1.40
2022-11-20T05:05:29.449Z,1.63
2022-11-20T05:07:59.527Z,1.48
2022-11-20T05:10:28.096Z,1.80
2022-11-20T05:12:54.735Z,1.60
2022-11-20T05:15:21.363Z,1.58
2022-11-20T05:17:49.781Z,1.80
2022-11-20T05:20:16.483Z,1.55
2022-11-20T05:22:43.423Z,1.60
2022-11-20T05:25:10.110Z,1.60
2022-11-20T05:27:36.664Z,1.42
2022-11-20T05:30:04.683Z,1.50
2022-11-20T05:32:31.240Z,1.60
2022-11-20T05:34:57.868Z,1.40
2022-11-20T05:37:24.464Z,1.70
2022-11-20T05:39:50.991Z,1.65
2022-11-20T05:42:32.983Z,1.42
2022-11-20T05:45:00.977Z,1.50
2022-11-20T05:47:28.656Z,1.60
2022-11-20T05:49:55.246Z,1.50
2022-11-20T05:52:21.790Z,1.42
2022-11-20T05:54:48.366Z,1.50
2022-11-20T05:57:14.935Z,1.60
2022-11-20T05:59:41.518Z,1.50
2022-11-20T06:02:08.073Z,1.60
2022-11-20T06:04:34.644Z,1.55
2022-11-20T06:07:01.243Z,1.88
2022-11-20T06:09:27.872Z,1.55
2022-11-20T06:11:54.446Z,1.45
2022-11-20T06:14:21.023Z,1.50
2022-11-20T06:16:47.620Z,1.52
2022-11-20T06:19:14.174Z,1.70
2022-11-20T06:21:40.726Z,1.60
2022-11-20T06:24:07.670Z,1.55
2022-11-20T06:26:34.280Z,1.23
2022-11-20T06:29:00.852Z,1.20
2022-11-20T06:31:27.556Z,1.42
2022-11-20T06:33:54.138Z,1.35
2022-11-20T06:36:22.723Z,1.58
2022-11-20T06:38:49.667Z,1.38
2022-11-20T06:41:18.434Z,1.50
2022-11-20T06:43:45.227Z,1.40
2022-11-20T06:46:14.067Z,1.30
2022-11-20T06:48:40.870Z,1.42
2022-11-20T06:51:08.862Z,1.30
2022-11-20T06:53:36.071Z,1.40
2022-11-20T06:56:02.613Z,1.30
2022-11-20T06:58:31.007Z,1.40
2022-11-20T07:01:01.824Z,1.35
2022-11-20T07:03:28.475Z,1.23
2022-11-20T07:05:59.159Z,1.30
2022-11-20T07:08:25.896Z,1.20
2022-11-20T07:10:52.461Z,1.50
2022-11-20T07:13:19.010Z,1.20
2022-11-20T07:15:45.575Z,1.08
2022-11-20T07:18:12.194Z,1.45
2022-11-20T07:20:38.760Z,1.23
2022-11-20T07:23:05.297Z,1.30
2022-11-20T07:25:31.938Z,1.10
2022-11-20T07:27:59.617Z,1.20
2022-11-20T07:30:26.691Z,1.05
2022-11-20T07:32:53.771Z,1.20
2022-11-20T07:35:20.755Z,1.30
2022-11-20T07:37:48.262Z,1.30
2022-11-20T07:40:15.499Z,1.23
2022-11-20T07:42:55.860Z,1.40
2022-11-20T07:45:24.179Z,1.10
2022-11-20T07:47:50.904Z,1.25
2022-11-20T07:50:17.917Z,1.25
2022-11-20T07:52:44.723Z,1.30
2022-11-20T07:55:11.582Z,1.23
2022-11-20T07:57:38.190Z,1.13
2022-11-20T08:00:06.040Z,1.20
2022-11-20T08:02:32.583Z,1.10
2022-11-20T08:04:59.139Z,1.10
2022-11-20T08:07:25.753Z,1.02
2022-11-20T08:09:52.305Z,1.02
2022-11-20T08:12:38.603Z,1.10
2022-11-20T08:15:11.333Z,1.13
2022-11-20T08:17:39.574Z,1.27
2022-11-20T08:20:06.323Z,1.00
2022-11-20T08:22:33.166Z,0.90
2022-11-20T08:24:59.793Z,1.17
2022-11-20T08:27:26.350Z,1.00
2022-11-20T08:29:52.920Z,0.90
2022-11-20T08:32:19.503Z,1.10
2022-11-20T08:34:46.115Z,1.25
2022-11-20T08:37:12.679Z,0.90
2022-11-20T08:39:39.323Z,0.93
2022-11-20T08:42:09.221Z,1.00
2022-11-20T08:44:35.791Z,1.10
2022-11-20T08:47:02.331Z,0.90
2022-11-20T08:49:28.891Z,0.95
2022-11-20T08:51:56.291Z,1.60
2022-11-20T08:54:23.625Z,2.67
2022-11-20T08:56:50.156Z,2.83
2022-11-20T08:59:27.364Z,3.72
2022-11-20T09:02:03.213Z,3.70
2022-11-20T09:04:29.750Z,3.70
2022-11-20T09:06:56.319Z,3.53
2022-11-20T09:09:23.419Z,3.40
2022-11-20T09:11:51.011Z,3.63
2022-11-20T09:14:17.586Z,3.92
2022-11-20T09:16:46.089Z,3.80
2022-11-20T09:19:34.476Z,3.95
2022-11-20T09:22:00.989Z,4.05
2022-11-20T09:24:28.123Z,3.25
2022-11-20T09:26:54.723Z,3.97
2022-11-20T09:29:21.395Z,3.50
2022-11-20T09:31:48.087Z,3.72
2022-11-20T09:34:14.619Z,3.70
2022-11-20T09:36:41.188Z,3.90
2022-11-20T09:39:07.790Z,3.25
2022-11-20T09:41:56.154Z,3.70
2022-11-20T09:44:48.755Z,3.88
2022-11-20T09:47:24.338Z,3.50
2022-11-20T09:50:13.859Z,3.42
2022-11-20T09:53:09.143Z,3.30
2022-11-20T09:55:37.203Z,3.42
2022-11-20T09:58:07.167Z,3.60
2022-11-20T10:00:35.393Z,3.58
2022-11-20T10:03:11.004Z,3.28
2022-11-20T10:05:45.339Z,3.30
2022-11-20T10:08:19.906Z,3.22
2022-11-20T10:10:52.587Z,3.13
2022-11-20T10:13:35.548Z,3.10
2022-11-20T10:16:20.697Z,3.15
2022-11-20T10:19:14.913Z,3.35
2022-11-20T10:22:08.355Z,3.65
2022-11-20T10:24:46.092Z,4.30
2022-11-20T10:27:27.666Z,3.78
2022-11-20T10:30:02.610Z,4.00
2022-11-20T10:32:40.809Z,4.78
2022-11-20T10:35:30.196Z,3.97
2022-11-20T10:38:00.101Z,3.95
2022-11-20T10:40:39.519Z,3.95
2022-11-20T10:43:13.578Z,3.67
2022-11-20T10:45:58.395Z,3.85
2022-11-20T10:48:27.060Z,4.28
2022-11-20T10:51:12.060Z,4.28
2022-11-20T10:53:59.114Z,3.72
2022-11-20T10:56:39.959Z,3.92
2022-11-20T10:59:25.001Z,4.03
2022-11-20T11:01:51.625Z,3.95
2022-11-20T11:04:33.260Z,3.72
2022-11-20T11:07:17.129Z,4.38
2022-11-20T11:10:33.168Z,3.63
2022-11-20T11:12:59.702Z,3.83
2022-11-20T11:15:41.154Z,3.90
2022-11-20T11:18:11.918Z,3.85
2022-11-20T11:20:38.829Z,3.50
2022-11-20T11:23:08.151Z,3.55
2022-11-20T11:25:37.968Z,3.55
2022-11-20T11:28:20.751Z,3.95
2022-11-20T11:30:50.198Z,4.05
2022-11-20T11:33:24.999Z,4.50
2022-11-20T11:36:02.402Z,4.25
2022-11-20T11:38:33.843Z,3.83
2022-11-20T11:41:00.500Z,3.80
2022-11-20T11:43:49.493Z,3.78
2022-11-20T11:46:25.171Z,4.10
2022-11-20T11:49:09.732Z,4.20
2022-11-20T11:51:54.128Z,3.83
2022-11-20T11:54:25.059Z,3.83
2022-11-20T11:56:52.167Z,3.95
2022-11-20T11:59:39.604Z,3.60
2022-11-20T12:02:20.549Z,3.90
2022-11-20T12:05:06.349Z,3.45
2022-11-20T12:07:49.368Z,3.60
2022-11-20T12:10:22.111Z,3.40
2022-11-20T12:13:02.032Z,3.83
2022-11-20T12:15:34.583Z,3.95
2022-11-20T12:18:01.783Z,3.43
2022-11-20T12:20:37.069Z,3.70
2022-11-20T12:23:18.972Z,3.40
2022-11-20T12:25:49.225Z,3.70
2022-11-20T12:28:19.274Z,3.95
2022-11-20T12:31:04.074Z,3.50
2022-11-20T12:33:51.879Z,3.85
2022-11-20T12:37:00.186Z,3.60
2022-11-20T12:39:58.863Z,3.30
2022-11-20T12:42:51.835Z,3.60
2022-11-20T12:45:53.922Z,3.90
2022-11-20T12:48:20.415Z,3.60
2022-11-20T12:51:18.519Z,3.72
2022-11-20T12:53:57.236Z,3.63
2022-11-20T12:56:30.363Z,3.70
2022-11-20T12:59:10.835Z,3.15
2022-11-20T13:01:52.551Z,3.00
2022-11-20T13:04:29.411Z,2.58
2022-11-20T13:06:56.195Z,3.33
2022-11-20T13:09:23.828Z,3.55
2022-11-20T13:12:02.300Z,3.25
2022-11-20T13:15:00.250Z,3.70
2022-11-20T13:17:31.900Z,3.10
2022-11-20T13:19:59.746Z,3.05
2022-11-20T13:22:30.888Z,3.00
2022-11-20T13:24:57.473Z,2.88
2022-11-20T13:27:25.011Z,2.95
2022-11-20T13:30:16.271Z,2.90
2022-11-20T13:32:52.699Z,3.03
2022-11-20T13:35:28.222Z,2.65
2022-11-20T13:38:12.310Z,2.97
2022-11-20T13:40:40.704Z,2.92
2022-11-20T13:43:16.842Z,2.42
2022-11-20T13:45:43.394Z,2.80
2022-11-20T13:48:36.192Z,3.17
2022-11-20T13:51:02.674Z,2.60
2022-11-20T13:53:43.480Z,2.78
2022-11-20T13:56:26.447Z,2.45
2022-11-20T13:59:19.267Z,2.60
2022-11-20T14:01:46.961Z,2.50
2022-11-20T14:04:25.159Z,3.10
2022-11-20T14:06:52.094Z,2.38
2022-11-20T14:09:32.953Z,2.30
2022-11-20T14:12:00.050Z,2.47
2022-11-20T14:14:28.207Z,2.97
2022-11-20T14:17:09.212Z,2.45
2022-11-20T14:19:38.139Z,2.30
2022-11-20T14:22:30.803Z,2.65
2022-11-20T14:25:06.151Z,2.30
2022-11-20T14:27:35.951Z,2.10
2022-11-20T14:30:03.781Z,2.45
2022-11-20T14:32:32.004Z,2.17
2022-11-20T14:35:08.536Z,2.22
2022-11-20T14:37:38.546Z,2.22
2022-11-20T14:40:23.405Z,2.25
2022-11-20T14:42:49.926Z,2.20
2022-11-20T14:45:16.600Z,2.55
2022-11-20T14:47:43.592Z,2.13
2022-11-20T14:50:22.000Z,2.28
2022-11-20T14:52:53.033Z,2.30
2022-11-20T14:55:30.460Z,2.22
2022-11-20T14:57:59.422Z,2.38
2022-11-20T15:00:26.205Z,2.42
2022-11-20T15:02:53.272Z,2.83
2022-11-20T15:05:22.221Z,3.05
2022-11-20T15:07:51.868Z,2.88
2022-11-20T15:10:25.229Z,2.90
2022-11-20T15:12:54.311Z,2.90
2022-11-20T15:15:33.803Z,2.75
2022-11-20T15:18:00.830Z,3.33
2022-11-20T15:20:30.200Z,3.10
2022-11-20T15:22:56.748Z,3.20
2022-11-20T15:25:25.525Z,3.03
2022-11-20T15:27:58.146Z,3.10
2022-11-20T15:30:25.011Z,3.20
2022-11-20T15:32:51.610Z,3.35
2022-11-20T15:35:18.172Z,6.50
2022-11-20T15:37:44.891Z,9.13
2022-11-20T15:40:11.811Z,9.70
2022-11-20T15:42:38.343Z,9.43
2022-11-20T15:45:05.259Z,9.50
2022-11-20T15:47:34.969Z,7.65
2022-11-20T15:50:01.738Z,8.35
2022-11-20T15:52:30.574Z,7.30
2022-11-20T15:55:08.278Z,7.20
2022-11-20T15:57:36.226Z,7.25
2022-11-20T16:00:03.616Z,6.30
2022-11-20T16:02:30.183Z,6.13
2022-11-20T16:04:56.727Z,5.65
2022-11-20T16:07:23.338Z,5.55
2022-11-20T16:09:49.909Z,4.95
2022-11-20T16:12:36.438Z,5.18
2022-11-20T16:15:21.902Z,4.93
2022-11-20T16:17:48.454Z,5.28
2022-11-20T16:20:15.020Z,4.65
2022-11-20T16:22:41.563Z,4.68
2022-11-20T16:25:08.261Z,4.55
2022-11-20T16:27:34.836Z,4.80
2022-11-20T16:30:01.364Z,4.22
2022-11-20T16:32:27.908Z,5.43
2022-11-20T16:34:54.464Z,4.28
2022-11-20T16:37:21.085Z,4.70
2022-11-20T16:39:47.627Z,4.10
2022-11-20T16:42:14.196Z,4.28
2022-11-20T16:44:40.799Z,3.97
2022-11-20T16:47:07.747Z,4.25
2022-11-20T16:49:34.348Z,4.18
2022-11-20T16:52:00.910Z,4.38
2022-11-20T16:54:27.610Z,4.28
2022-11-20T16:56:54.332Z,3.92
2022-11-20T16:59:21.018Z,3.78
2022-11-20T17:01:47.633Z,3.70
2022-11-20T17:04:14.665Z,3.47
2022-11-20T17:06:44.187Z,3.70
2022-11-20T17:09:11.079Z,3.65
2022-11-20T17:11:37.728Z,3.83
2022-11-20T17:14:07.399Z,3.55
2022-11-20T17:16:35.784Z,3.97
2022-11-20T17:19:03.875Z,3.70
2022-11-20T17:21:31.515Z,3.92
2022-11-20T17:24:02.299Z,3.83
2022-11-20T17:26:29.141Z,3.92
2022-11-20T17:28:59.934Z,3.35
2022-11-20T17:31:27.282Z,3.33
2022-11-20T17:33:54.107Z,3.38
2022-11-20T17:36:20.904Z,3.10
2022-11-20T17:38:47.656Z,3.13
2022-11-20T17:41:16.359Z,3.40
2022-11-20T17:43:43.610Z,3.38
2022-11-20T17:46:12.300Z,3.35
2022-11-20T17:48:42.340Z,3.00
2022-11-20T17:53:39.843Z,3.15
2022-11-20T17:56:25.190Z,3.20
2022-11-20T17:58:51.787Z,3.13
2022-11-20T18:01:19.122Z,3.20
2022-11-20T18:03:45.882Z,3.00
2022-11-20T18:06:14.563Z,3.20
2022-11-20T18:08:41.980Z,2.88
2022-11-20T18:11:12.910Z,2.92
2022-11-20T18:13:59.003Z,2.78
2022-11-20T18:16:25.859Z,2.83
2022-11-20T18:18:56.459Z,2.83
2022-11-20T18:21:23.903Z,3.20
2022-11-20T18:23:50.767Z,2.80
2022-11-20T18:26:18.415Z,2.85
2022-11-20T18:28:45.834Z,3.00
2022-11-20T18:31:13.189Z,2.55
2022-11-20T18:33:40.068Z,2.88
2022-11-20T18:36:21.172Z,2.83
2022-11-20T18:38:49.588Z,2.90
2022-11-20T18:41:36.983Z,2.97
2022-11-20T18:44:23.749Z,2.72
2022-11-20T18:46:50.703Z,2.75
2022-11-20T18:49:17.390Z,2.65
2022-11-20T18:51:44.393Z,2.50
2022-11-20T18:54:12.050Z,2.30
2022-11-20T18:56:39.313Z,2.67
2022-11-20T18:59:07.397Z,2.85
2022-11-20T19:01:34.459Z,2.92
2022-11-20T19:04:01.083Z,2.60
2022-11-20T19:06:27.668Z,2.53
2022-11-20T19:08:54.730Z,2.72
2022-11-20T19:11:21.276Z,2.45
2022-11-20T19:13:47.870Z,2.55
2022-11-20T19:16:20.331Z,2.60
2022-11-20T19:18:48.404Z,2.57
2022-11-20T19:21:17.636Z,2.60
2022-11-20T19:23:48.200Z,2.55
2022-11-20T19:26:15.411Z,2.63
2022-11-20T19:28:41.991Z,2.40
2022-11-20T19:31:24.289Z,2.42
2022-11-20T19:33:55.907Z,2.70
2022-11-20T19:36:27.867Z,2.60
2022-11-20T19:38:54.807Z,2.88
2022-11-20T19:41:29.099Z,2.40
2022-11-20T19:44:00.281Z,2.63
2022-11-20T19:46:28.656Z,2.60
2022-11-20T19:48:56.024Z,2.58
2022-11-20T19:51:27.262Z,2.33
2022-11-20T19:53:55.873Z,2.33
2022-11-20T19:56:22.862Z,2.22
2022-11-20T19:58:49.450Z,2.40
2022-11-20T20:01:20.876Z,2.42
2022-11-20T20:03:48.072Z,2.17
2022-11-20T20:06:20.564Z,2.13
2022-11-20T20:08:48.147Z,2.25
2022-11-20T20:11:17.091Z,2.78
2022-11-20T20:13:44.514Z,2.50
2022-11-20T20:16:16.327Z,2.50
2022-11-20T20:18:43.335Z,2.70
2022-11-20T20:21:12.393Z,2.50
2022-11-20T20:23:39.436Z,2.35
2022-11-20T20:26:07.583Z,2.30
2022-11-20T20:28:35.165Z,2.25
2022-11-20T20:31:09.426Z,2.25
2022-11-20T20:33:37.246Z,2.60
2022-11-20T20:36:05.315Z,2.50
2022-11-20T20:38:31.943Z,2.45
2022-11-20T20:40:58.514Z,2.47
2022-11-20T20:43:25.455Z,2.35
2022-11-20T20:45:52.367Z,2.22
2022-11-20T20:48:21.315Z,2.42
2022-11-20T20:50:58.856Z,2.28
2022-11-20T20:53:25.450Z,2.00
2022-11-20T20:55:55.657Z,2.45
2022-11-20T20:58:22.516Z,2.22
2022-11-20T21:00:49.084Z,2.30
2022-11-20T21:03:15.685Z,2.50
2022-11-20T21:05:42.207Z,2.20
2022-11-20T21:08:25.288Z,2.30
2022-11-20T21:10:53.536Z,2.78
2022-11-20T21:13:21.126Z,2.50
2022-11-20T21:15:49.594Z,2.50
2022-11-20T21:18:17.968Z,2.83
2022-11-20T21:21:04.356Z,2.75
2022-11-20T21:23:31.099Z,2.65
2022-11-20T21:26:00.818Z,3.20
2022-11-20T21:28:27.360Z,2.70
2022-11-20T21:30:53.902Z,2.88
2022-11-20T21:33:20.480Z,2.70
2022-11-20T21:35:47.040Z,2.75
2022-11-20T21:38:13.607Z,2.53
2022-11-20T21:40:40.166Z,2.70
2022-11-20T21:43:06.766Z,2.95
2022-11-20T21:45:33.308Z,2.42
2022-11-20T21:47:59.911Z,2.65
2022-11-20T21:50:26.443Z,2.58
2022-11-20T21:52:52.986Z,2.70
2022-11-20T21:55:19.534Z,2.60
2022-11-20T21:57:46.076Z,2.47
2022-11-20T22:00:13.129Z,2.50
2022-11-20T22:02:40.422Z,2.58
2022-11-20T22:05:07.889Z,2.47
2022-11-20T22:07:35.295Z,2.42
2022-11-20T22:10:01.951Z,2.35
2022-11-20T22:12:28.511Z,2.50
2022-11-20T22:14:55.071Z,2.50
2022-11-20T22:17:41.601Z,2.22
2022-11-20T22:20:09.136Z,2.40
2022-11-20T22:22:35.677Z,2.70
2022-11-20T22:25:04.623Z,2.60
2022-11-20T22:27:31.307Z,2.10
2022-11-20T22:29:57.827Z,2.10
2022-11-20T22:32:24.381Z,2.10
2022-11-20T22:34:50.918Z,2.30
2022-11-20T22:37:17.602Z,2.22
2022-11-20T22:39:44.155Z,2.08
2022-11-20T22:42:10.734Z,2.17
2022-11-20T22:44:37.272Z,2.20
2022-11-20T22:47:08.686Z,2.15
2022-11-20T22:49:37.759Z,2.05
2022-11-20T22:52:04.382Z,2.10
2022-11-20T22:54:30.923Z,2.10
2022-11-20T22:56:57.514Z,2.00
2022-11-20T22:59:24.095Z,2.40
2022-11-20T23:01:50.691Z,2.13
2022-11-20T23:04:17.304Z,2.00
2022-11-20T23:06:43.847Z,2.33
2022-11-20T23:09:12.732Z,1.88
2022-11-20T23:11:39.329Z,2.15
2022-11-20T23:14:08.222Z,1.58
2022-11-20T23:16:35.187Z,1.98
2022-11-20T23:19:07.271Z,2.00
2022-11-20T23:21:35.183Z,2.33
2022-11-20T23:24:02.161Z,1.80
2022-11-20T23:26:30.835Z,1.58
2022-11-20T23:28:58.863Z,1.83
2022-11-20T23:31:27.234Z,2.00
2022-11-20T23:33:54.083Z,2.13
2022-11-20T23:36:20.663Z,1.85
2022-11-20T23:38:47.259Z,1.88
2022-11-20T23:41:14.395Z,2.05
2022-11-20T23:43:40.994Z,2.08
2022-11-20T23:46:16.803Z,2.17
2022-11-20T23:48:45.092Z,2.10
2022-11-20T23:51:11.944Z,2.13
2022-11-20T23:53:38.627Z,1.95
2022-11-20T23:56:05.704Z,2.08
2022-11-20T23:58:36.956Z,1.90
